sensor_id;sensor_type;location;lat;lon;timestamp;P1;durP1;ratioP1;P2;durP2;ratioP2
3597;SDS011;1813;52.016;8.714;2022-08-16T00:01:08;18.43;;;12.97;;
3597;SDS011;1813;52.016;8.714;2022-08-16T00:03:40;18.80;;;14.03;;
3597;SDS011;1813;52.016;8.714;2022-08-16T00:06:11;19.60;;;14.37;;
3597;SDS011;1813;52.016;8.714;2022-08-16T00:08:45;18.53;;;13.87;;
3597;SDS011;1813;52.016;8.714;2022-08-16T00:11:17;20.80;;;14.57;;
3597;SDS011;1813;52.016;8.714;2022-08-16T00:13:50;20.40;;;13.70;;
3597;SDS011;1813;52.016;8.714;2022-08-16T00:16:22;18.40;;;13.87;;
3597;SDS011;1813;52.016;8.714;2022-08-16T00:18:55;23.50;;;14.90;;
3597;SDS011;1813;52.016;8.714;2022-08-16T00:21:26;19.27;;;13.80;;
3597;SDS011;1813;52.016;8.714;2022-08-16T00:24:00;23.07;;;14.40;;
3597;SDS011;1813;52.016;8.714;2022-08-16T00:26:32;24.90;;;15.27;;
3597;SDS011;1813;52.016;8.714;2022-08-16T00:29:04;17.30;;;14.83;;
3597;SDS011;1813;52.016;8.714;2022-08-16T00:31:36;21.43;;;15.10;;
3597;SDS011;1813;52.016;8.714;2022-08-16T00:34:08;21.97;;;15.07;;
3597;SDS011;1813;52.016;8.714;2022-08-16T00:36:40;27.03;;;15.73;;
3597;SDS011;1813;52.016;8.714;2022-08-16T00:39:17;18.30;;;15.07;;
3597;SDS011;1813;52.016;8.714;2022-08-16T00:41:49;17.67;;;15.30;;
3597;SDS011;1813;52.016;8.714;2022-08-16T00:44:21;19.50;;;14.10;;
3597;SDS011;1813;52.016;8.714;2022-08-16T00:46:54;22.43;;;15.77;;
3597;SDS011;1813;52.016;8.714;2022-08-16T00:49:30;17.50;;;14.10;;
3597;SDS011;1813;52.016;8.714;2022-08-16T00:52:03;21.87;;;16.20;;
3597;SDS011;1813;52.016;8.714;2022-08-16T00:54:37;22.50;;;15.90;;
3597;SDS011;1813;52.016;8.714;2022-08-16T00:57:09;20.23;;;16.33;;
3597;SDS011;1813;52.016;8.714;2022-08-16T00:59:41;19.20;;;15.57;;
3597;SDS011;1813;52.016;8.714;2022-08-16T01:02:13;22.03;;;15.20;;
3597;SDS011;1813;52.016;8.714;2022-08-16T01:04:45;25.53;;;16.00;;
3597;SDS011;1813;52.016;8.714;2022-08-16T01:07:17;24.73;;;15.50;;
3597;SDS011;1813;52.016;8.714;2022-08-16T01:09:50;16.93;;;15.10;;
3597;SDS011;1813;52.016;8.714;2022-08-16T01:12:22;20.20;;;14.70;;
3597;SDS011;1813;52.016;8.714;2022-08-16T01:14:54;21.73;;;14.80;;
3597;SDS011;1813;52.016;8.714;2022-08-16T01:17:28;19.40;;;14.27;;
3597;SDS011;1813;52.016;8.714;2022-08-16T01:20:03;17.70;;;15.50;;
3597;SDS011;1813;52.016;8.714;2022-08-16T01:22:46;20.23;;;14.93;;
3597;SDS011;1813;52.016;8.714;2022-08-16T01:25:25;20.50;;;15.63;;
3597;SDS011;1813;52.016;8.714;2022-08-16T01:28:01;24.50;;;15.47;;
3597;SDS011;1813;52.016;8.714;2022-08-16T01:30:36;19.80;;;14.70;;
3597;SDS011;1813;52.016;8.714;2022-08-16T01:33:10;21.90;;;15.77;;
3597;SDS011;1813;52.016;8.714;2022-08-16T01:35:45;23.17;;;16.17;;
3597;SDS011;1813;52.016;8.714;2022-08-16T01:38:21;25.97;;;16.00;;
3597;SDS011;1813;52.016;8.714;2022-08-16T01:40:57;21.33;;;16.00;;
3597;SDS011;1813;52.016;8.714;2022-08-16T01:43:31;23.60;;;16.37;;
3597;SDS011;1813;52.016;8.714;2022-08-16T01:46:06;22.73;;;15.80;;
3597;SDS011;1813;52.016;8.714;2022-08-16T01:48:40;23.50;;;16.30;;
3597;SDS011;1813;52.016;8.714;2022-08-16T01:51:12;17.40;;;15.10;;
3597;SDS011;1813;52.016;8.714;2022-08-16T01:53:47;21.23;;;16.53;;
3597;SDS011;1813;52.016;8.714;2022-08-16T01:56:30;20.13;;;17.10;;
3597;SDS011;1813;52.016;8.714;2022-08-16T01:59:04;22.93;;;16.30;;
3597;SDS011;1813;52.016;8.714;2022-08-16T02:01:38;26.70;;;16.60;;
3597;SDS011;1813;52.016;8.714;2022-08-16T02:04:10;23.97;;;15.80;;
3597;SDS011;1813;52.016;8.714;2022-08-16T02:06:44;20.20;;;16.53;;
3597;SDS011;1813;52.016;8.714;2022-08-16T02:09:17;22.07;;;16.97;;
3597;SDS011;1813;52.016;8.714;2022-08-16T02:11:55;29.67;;;18.33;;
3597;SDS011;1813;52.016;8.714;2022-08-16T02:14:28;26.13;;;19.40;;
3597;SDS011;1813;52.016;8.714;2022-08-16T02:17:03;24.37;;;18.17;;
3597;SDS011;1813;52.016;8.714;2022-08-16T02:19:39;21.60;;;18.20;;
3597;SDS011;1813;52.016;8.714;2022-08-16T02:22:15;23.63;;;19.10;;
3597;SDS011;1813;52.016;8.714;2022-08-16T02:24:50;29.30;;;20.23;;
3597;SDS011;1813;52.016;8.714;2022-08-16T02:27:23;24.70;;;19.17;;
3597;SDS011;1813;52.016;8.714;2022-08-16T02:29:55;24.90;;;17.87;;
3597;SDS011;1813;52.016;8.714;2022-08-16T02:32:27;26.90;;;19.57;;
3597;SDS011;1813;52.016;8.714;2022-08-16T02:34:59;25.30;;;18.70;;
3597;SDS011;1813;52.016;8.714;2022-08-16T02:37:31;23.03;;;15.90;;
3597;SDS011;1813;52.016;8.714;2022-08-16T02:40:03;28.60;;;18.53;;
3597;SDS011;1813;52.016;8.714;2022-08-16T02:42:37;25.17;;;18.77;;
3597;SDS011;1813;52.016;8.714;2022-08-16T02:45:09;24.83;;;19.43;;
3597;SDS011;1813;52.016;8.714;2022-08-16T02:47:42;21.60;;;18.20;;
3597;SDS011;1813;52.016;8.714;2022-08-16T02:50:13;24.83;;;17.97;;
3597;SDS011;1813;52.016;8.714;2022-08-16T02:52:45;22.57;;;18.20;;
3597;SDS011;1813;52.016;8.714;2022-08-16T02:55:17;24.90;;;19.27;;
3597;SDS011;1813;52.016;8.714;2022-08-16T02:57:51;26.90;;;19.37;;
3597;SDS011;1813;52.016;8.714;2022-08-16T03:00:23;29.73;;;19.77;;
3597;SDS011;1813;52.016;8.714;2022-08-16T03:02:55;23.83;;;19.90;;
3597;SDS011;1813;52.016;8.714;2022-08-16T03:05:27;23.33;;;18.53;;
3597;SDS011;1813;52.016;8.714;2022-08-16T03:08:00;23.37;;;17.97;;
3597;SDS011;1813;52.016;8.714;2022-08-16T03:10:37;24.27;;;18.00;;
3597;SDS011;1813;52.016;8.714;2022-08-16T03:13:10;21.40;;;17.63;;
3597;SDS011;1813;52.016;8.714;2022-08-16T03:15:42;25.80;;;17.90;;
3597;SDS011;1813;52.016;8.714;2022-08-16T03:18:15;21.80;;;18.03;;
3597;SDS011;1813;52.016;8.714;2022-08-16T03:20:47;25.87;;;18.03;;
3597;SDS011;1813;52.016;8.714;2022-08-16T03:23:19;23.23;;;18.30;;
3597;SDS011;1813;52.016;8.714;2022-08-16T03:25:51;12.17;;;10.30;;
3597;SDS011;1813;52.016;8.714;2022-08-16T03:28:24;22.97;;;15.30;;
3597;SDS011;1813;52.016;8.714;2022-08-16T03:30:56;21.80;;;16.50;;
3597;SDS011;1813;52.016;8.714;2022-08-16T03:33:28;19.03;;;15.50;;
3597;SDS011;1813;52.016;8.714;2022-08-16T03:36:02;27.10;;;15.60;;
3597;SDS011;1813;52.016;8.714;2022-08-16T03:38:38;20.17;;;16.40;;
3597;SDS011;1813;52.016;8.714;2022-08-16T03:41:12;22.43;;;16.33;;
3597;SDS011;1813;52.016;8.714;2022-08-16T03:43:45;19.40;;;16.20;;
3597;SDS011;1813;52.016;8.714;2022-08-16T03:46:20;20.93;;;15.10;;
3597;SDS011;1813;52.016;8.714;2022-08-16T03:48:52;20.13;;;16.47;;
3597;SDS011;1813;52.016;8.714;2022-08-16T03:51:25;23.73;;;17.23;;
3597;SDS011;1813;52.016;8.714;2022-08-16T03:54:04;20.00;;;17.20;;
3597;SDS011;1813;52.016;8.714;2022-08-16T03:56:36;27.70;;;17.80;;
3597;SDS011;1813;52.016;8.714;2022-08-16T03:59:10;23.87;;;18.17;;
3597;SDS011;1813;52.016;8.714;2022-08-16T04:01:50;26.73;;;17.33;;
3597;SDS011;1813;52.016;8.714;2022-08-16T04:04:22;21.50;;;18.00;;
3597;SDS011;1813;52.016;8.714;2022-08-16T04:06:54;23.40;;;17.10;;
3597;SDS011;1813;52.016;8.714;2022-08-16T04:09:28;27.20;;;18.17;;
3597;SDS011;1813;52.016;8.714;2022-08-16T04:12:00;24.20;;;18.43;;
3597;SDS011;1813;52.016;8.714;2022-08-16T04:14:34;23.00;;;16.93;;
3597;SDS011;1813;52.016;8.714;2022-08-16T04:17:06;25.77;;;16.37;;
3597;SDS011;1813;52.016;8.714;2022-08-16T04:19:41;19.43;;;16.90;;
3597;SDS011;1813;52.016;8.714;2022-08-16T04:22:14;18.83;;;16.57;;
3597;SDS011;1813;52.016;8.714;2022-08-16T04:24:52;27.93;;;16.80;;
3597;SDS011;1813;52.016;8.714;2022-08-16T04:27:25;24.00;;;16.40;;
3597;SDS011;1813;52.016;8.714;2022-08-16T04:29:59;26.90;;;16.20;;
3597;SDS011;1813;52.016;8.714;2022-08-16T04:32:41;23.93;;;17.23;;
3597;SDS011;1813;52.016;8.714;2022-08-16T04:35:15;21.33;;;17.67;;
3597;SDS011;1813;52.016;8.714;2022-08-16T04:37:51;20.90;;;14.63;;
3597;SDS011;1813;52.016;8.714;2022-08-16T04:40:26;22.27;;;14.83;;
3597;SDS011;1813;52.016;8.714;2022-08-16T04:43:00;20.80;;;16.10;;
3597;SDS011;1813;52.016;8.714;2022-08-16T04:45:36;26.80;;;16.43;;
3597;SDS011;1813;52.016;8.714;2022-08-16T04:48:14;20.70;;;16.80;;
3597;SDS011;1813;52.016;8.714;2022-08-16T04:50:54;24.60;;;15.53;;
3597;SDS011;1813;52.016;8.714;2022-08-16T04:53:36;23.77;;;15.03;;
3597;SDS011;1813;52.016;8.714;2022-08-16T04:56:08;17.30;;;15.50;;
3597;SDS011;1813;52.016;8.714;2022-08-16T04:58:40;20.90;;;15.70;;
3597;SDS011;1813;52.016;8.714;2022-08-16T05:01:13;24.37;;;14.90;;
3597;SDS011;1813;52.016;8.714;2022-08-16T05:03:47;20.93;;;13.53;;
3597;SDS011;1813;52.016;8.714;2022-08-16T05:06:19;17.37;;;12.63;;
3597;SDS011;1813;52.016;8.714;2022-08-16T05:08:51;13.90;;;9.53;;
3597;SDS011;1813;52.016;8.714;2022-08-16T05:11:26;11.97;;;8.93;;
3597;SDS011;1813;52.016;8.714;2022-08-16T05:14:00;12.63;;;9.60;;
3597;SDS011;1813;52.016;8.714;2022-08-16T05:16:34;13.57;;;8.77;;
3597;SDS011;1813;52.016;8.714;2022-08-16T05:19:12;13.83;;;9.50;;
3597;SDS011;1813;52.016;8.714;2022-08-16T05:22:02;11.10;;;9.20;;
3597;SDS011;1813;52.016;8.714;2022-08-16T05:24:36;12.73;;;8.60;;
3597;SDS011;1813;52.016;8.714;2022-08-16T05:27:08;15.60;;;10.70;;
3597;SDS011;1813;52.016;8.714;2022-08-16T05:29:40;20.33;;;11.77;;
3597;SDS011;1813;52.016;8.714;2022-08-16T05:32:17;13.60;;;11.30;;
3597;SDS011;1813;52.016;8.714;2022-08-16T05:34:49;21.83;;;12.00;;
3597;SDS011;1813;52.016;8.714;2022-08-16T05:37:21;13.43;;;11.37;;
3597;SDS011;1813;52.016;8.714;2022-08-16T05:39:54;17.33;;;11.40;;
3597;SDS011;1813;52.016;8.714;2022-08-16T05:42:26;19.77;;;12.43;;
3597;SDS011;1813;52.016;8.714;2022-08-16T05:44:59;15.93;;;9.83;;
3597;SDS011;1813;52.016;8.714;2022-08-16T05:47:35;10.83;;;9.73;;
3597;SDS011;1813;52.016;8.714;2022-08-16T05:50:07;9.67;;;8.77;;
3597;SDS011;1813;52.016;8.714;2022-08-16T05:52:40;11.30;;;8.10;;
3597;SDS011;1813;52.016;8.714;2022-08-16T05:55:12;10.33;;;8.17;;
3597;SDS011;1813;52.016;8.714;2022-08-16T05:57:44;9.60;;;8.70;;
3597;SDS011;1813;52.016;8.714;2022-08-16T06:00:17;9.27;;;8.00;;
3597;SDS011;1813;52.016;8.714;2022-08-16T06:02:52;8.97;;;8.07;;
3597;SDS011;1813;52.016;8.714;2022-08-16T06:05:50;11.70;;;8.40;;
3597;SDS011;1813;52.016;8.714;2022-08-16T06:08:22;8.97;;;7.83;;
3597;SDS011;1813;52.016;8.714;2022-08-16T06:10:55;9.63;;;8.30;;
3597;SDS011;1813;52.016;8.714;2022-08-16T06:13:27;11.60;;;8.00;;
3597;SDS011;1813;52.016;8.714;2022-08-16T06:15:59;8.57;;;7.50;;
3597;SDS011;1813;52.016;8.714;2022-08-16T06:18:32;11.33;;;7.83;;
3597;SDS011;1813;52.016;8.714;2022-08-16T06:21:04;9.93;;;7.43;;
3597;SDS011;1813;52.016;8.714;2022-08-16T06:23:36;8.57;;;7.47;;
3597;SDS011;1813;52.016;8.714;2022-08-16T06:26:12;8.37;;;7.57;;
3597;SDS011;1813;52.016;8.714;2022-08-16T06:28:47;11.00;;;7.33;;
3597;SDS011;1813;52.016;8.714;2022-08-16T06:31:25;12.93;;;8.30;;
3597;SDS011;1813;52.016;8.714;2022-08-16T06:34:02;11.27;;;7.80;;
3597;SDS011;1813;52.016;8.714;2022-08-16T06:36:38;7.93;;;7.13;;
3597;SDS011;1813;52.016;8.714;2022-08-16T06:39:24;10.37;;;7.43;;
3597;SDS011;1813;52.016;8.714;2022-08-16T06:42:01;10.80;;;7.80;;
3597;SDS011;1813;52.016;8.714;2022-08-16T06:44:56;12.03;;;7.53;;
3597;SDS011;1813;52.016;8.714;2022-08-16T06:47:48;9.60;;;7.67;;
3597;SDS011;1813;52.016;8.714;2022-08-16T06:50:22;8.57;;;7.17;;
3597;SDS011;1813;52.016;8.714;2022-08-16T06:52:54;9.60;;;7.10;;
3597;SDS011;1813;52.016;8.714;2022-08-16T06:55:27;9.77;;;7.70;;
3597;SDS011;1813;52.016;8.714;2022-08-16T06:58:00;12.93;;;7.97;;
3597;SDS011;1813;52.016;8.714;2022-08-16T07:00:33;8.67;;;7.87;;
3597;SDS011;1813;52.016;8.714;2022-08-16T07:03:14;9.90;;;7.63;;
3597;SDS011;1813;52.016;8.714;2022-08-16T07:05:47;11.40;;;7.73;;
3597;SDS011;1813;52.016;8.714;2022-08-16T07:08:28;8.63;;;6.90;;
3597;SDS011;1813;52.016;8.714;2022-08-16T07:11:01;8.20;;;7.40;;
3597;SDS011;1813;52.016;8.714;2022-08-16T07:13:37;7.57;;;6.87;;
3597;SDS011;1813;52.016;8.714;2022-08-16T07:16:11;9.73;;;7.10;;
3597;SDS011;1813;52.016;8.714;2022-08-16T07:18:46;8.50;;;6.53;;
3597;SDS011;1813;52.016;8.714;2022-08-16T07:21:20;8.47;;;6.80;;
3597;SDS011;1813;52.016;8.714;2022-08-16T07:23:54;12.20;;;7.00;;
3597;SDS011;1813;52.016;8.714;2022-08-16T07:26:26;8.50;;;7.43;;
3597;SDS011;1813;52.016;8.714;2022-08-16T07:29:01;10.60;;;7.33;;
3597;SDS011;1813;52.016;8.714;2022-08-16T07:31:34;9.73;;;7.60;;
3597;SDS011;1813;52.016;8.714;2022-08-16T07:34:06;10.70;;;7.43;;
3597;SDS011;1813;52.016;8.714;2022-08-16T07:36:39;8.53;;;7.57;;
3597;SDS011;1813;52.016;8.714;2022-08-16T07:39:12;14.17;;;7.70;;
3597;SDS011;1813;52.016;8.714;2022-08-16T07:41:44;9.27;;;6.73;;
3597;SDS011;1813;52.016;8.714;2022-08-16T07:44:16;8.73;;;7.43;;
3597;SDS011;1813;52.016;8.714;2022-08-16T07:46:51;10.30;;;7.87;;
3597;SDS011;1813;52.016;8.714;2022-08-16T07:49:25;8.93;;;7.27;;
3597;SDS011;1813;52.016;8.714;2022-08-16T07:51:59;10.73;;;7.80;;
3597;SDS011;1813;52.016;8.714;2022-08-16T07:54:36;7.83;;;7.03;;
3597;SDS011;1813;52.016;8.714;2022-08-16T07:57:11;9.00;;;7.47;;
3597;SDS011;1813;52.016;8.714;2022-08-16T07:59:44;9.43;;;7.20;;
3597;SDS011;1813;52.016;8.714;2022-08-16T08:02:17;9.70;;;7.20;;
3597;SDS011;1813;52.016;8.714;2022-08-16T08:04:49;10.90;;;7.67;;
3597;SDS011;1813;52.016;8.714;2022-08-16T08:07:22;7.87;;;7.03;;
3597;SDS011;1813;52.016;8.714;2022-08-16T08:09:55;9.70;;;8.43;;
3597;SDS011;1813;52.016;8.714;2022-08-16T08:12:27;13.63;;;7.90;;
3597;SDS011;1813;52.016;8.714;2022-08-16T08:14:59;11.93;;;7.60;;
3597;SDS011;1813;52.016;8.714;2022-08-16T08:17:33;9.77;;;8.30;;
3597;SDS011;1813;52.016;8.714;2022-08-16T08:20:10;8.57;;;7.70;;
3597;SDS011;1813;52.016;8.714;2022-08-16T08:22:47;13.90;;;8.60;;
3597;SDS011;1813;52.016;8.714;2022-08-16T08:25:21;8.80;;;7.90;;
3597;SDS011;1813;52.016;8.714;2022-08-16T08:27:54;12.73;;;7.93;;
3597;SDS011;1813;52.016;8.714;2022-08-16T08:30:30;8.60;;;7.50;;
3597;SDS011;1813;52.016;8.714;2022-08-16T08:33:01;8.27;;;7.40;;
3597;SDS011;1813;52.016;8.714;2022-08-16T08:35:37;9.20;;;8.03;;
3597;SDS011;1813;52.016;8.714;2022-08-16T08:38:13;12.30;;;8.20;;
3597;SDS011;1813;52.016;8.714;2022-08-16T08:40:49;15.17;;;9.70;;
3597;SDS011;1813;52.016;8.714;2022-08-16T08:43:21;10.50;;;8.13;;
3597;SDS011;1813;52.016;8.714;2022-08-16T08:45:59;13.60;;;8.20;;
3597;SDS011;1813;52.016;8.714;2022-08-16T08:48:31;11.03;;;8.80;;
3597;SDS011;1813;52.016;8.714;2022-08-16T08:51:03;11.67;;;7.93;;
3597;SDS011;1813;52.016;8.714;2022-08-16T08:53:41;10.90;;;8.70;;
3597;SDS011;1813;52.016;8.714;2022-08-16T08:56:13;11.03;;;8.53;;
3597;SDS011;1813;52.016;8.714;2022-08-16T08:58:45;12.40;;;8.90;;
3597;SDS011;1813;52.016;8.714;2022-08-16T09:01:29;11.63;;;9.20;;
3597;SDS011;1813;52.016;8.714;2022-08-16T09:04:04;14.03;;;9.33;;
3597;SDS011;1813;52.016;8.714;2022-08-16T09:06:37;9.90;;;8.73;;
3597;SDS011;1813;52.016;8.714;2022-08-16T09:09:11;20.27;;;9.80;;
3597;SDS011;1813;52.016;8.714;2022-08-16T09:11:43;15.67;;;9.47;;
3597;SDS011;1813;52.016;8.714;2022-08-16T09:14:16;12.20;;;10.70;;
3597;SDS011;1813;52.016;8.714;2022-08-16T09:16:48;15.00;;;11.13;;
3597;SDS011;1813;52.016;8.714;2022-08-16T09:19:20;10.33;;;8.80;;
3597;SDS011;1813;52.016;8.714;2022-08-16T09:21:53;9.87;;;8.87;;
3597;SDS011;1813;52.016;8.714;2022-08-16T09:24:26;12.33;;;10.40;;
3597;SDS011;1813;52.016;8.714;2022-08-16T09:26:58;15.30;;;9.90;;
3597;SDS011;1813;52.016;8.714;2022-08-16T09:29:30;15.33;;;10.03;;
3597;SDS011;1813;52.016;8.714;2022-08-16T09:32:02;11.77;;;9.33;;
3597;SDS011;1813;52.016;8.714;2022-08-16T09:34:34;13.30;;;9.13;;
3597;SDS011;1813;52.016;8.714;2022-08-16T09:37:06;12.10;;;9.30;;
3597;SDS011;1813;52.016;8.714;2022-08-16T09:39:39;9.40;;;8.50;;
3597;SDS011;1813;52.016;8.714;2022-08-16T09:42:11;9.90;;;8.53;;
3597;SDS011;1813;52.016;8.714;2022-08-16T09:44:44;9.87;;;8.83;;
3597;SDS011;1813;52.016;8.714;2022-08-16T09:47:16;9.50;;;8.50;;
3597;SDS011;1813;52.016;8.714;2022-08-16T09:49:48;12.90;;;9.20;;
3597;SDS011;1813;52.016;8.714;2022-08-16T09:52:20;13.50;;;9.17;;
3597;SDS011;1813;52.016;8.714;2022-08-16T09:54:53;10.57;;;9.47;;
3597;SDS011;1813;52.016;8.714;2022-08-16T09:57:25;10.03;;;8.63;;
3597;SDS011;1813;52.016;8.714;2022-08-16T09:59:57;13.33;;;9.00;;
3597;SDS011;1813;52.016;8.714;2022-08-16T10:02:30;8.97;;;7.60;;
3597;SDS011;1813;52.016;8.714;2022-08-16T10:05:02;10.77;;;8.50;;
3597;SDS011;1813;52.016;8.714;2022-08-16T10:07:35;9.47;;;8.47;;
3597;SDS011;1813;52.016;8.714;2022-08-16T10:10:09;8.90;;;8.00;;
3597;SDS011;1813;52.016;8.714;2022-08-16T10:12:41;9.00;;;8.10;;
3597;SDS011;1813;52.016;8.714;2022-08-16T10:15:30;8.70;;;6.60;;
3597;SDS011;1813;52.016;8.714;2022-08-16T10:18:04;12.73;;;7.97;;
3597;SDS011;1813;52.016;8.714;2022-08-16T10:20:39;8.20;;;6.73;;
3597;SDS011;1813;52.016;8.714;2022-08-16T10:23:13;11.03;;;6.93;;
3597;SDS011;1813;52.016;8.714;2022-08-16T10:25:47;11.60;;;6.90;;
3597;SDS011;1813;52.016;8.714;2022-08-16T10:28:19;6.70;;;4.77;;
3597;SDS011;1813;52.016;8.714;2022-08-16T10:30:51;7.57;;;5.50;;
3597;SDS011;1813;52.016;8.714;2022-08-16T10:33:23;6.93;;;5.90;;
3597;SDS011;1813;52.016;8.714;2022-08-16T10:35:56;9.63;;;6.00;;
3597;SDS011;1813;52.016;8.714;2022-08-16T10:38:28;6.10;;;5.60;;
3597;SDS011;1813;52.016;8.714;2022-08-16T10:41:02;6.03;;;5.50;;
3597;SDS011;1813;52.016;8.714;2022-08-16T10:43:34;6.97;;;6.10;;
3597;SDS011;1813;52.016;8.714;2022-08-16T10:46:07;6.87;;;5.47;;
3597;SDS011;1813;52.016;8.714;2022-08-16T10:48:41;6.43;;;5.53;;
3597;SDS011;1813;52.016;8.714;2022-08-16T10:51:15;5.20;;;4.80;;
3597;SDS011;1813;52.016;8.714;2022-08-16T10:53:47;5.80;;;5.30;;
3597;SDS011;1813;52.016;8.714;2022-08-16T10:56:21;7.93;;;4.80;;
3597;SDS011;1813;52.016;8.714;2022-08-16T10:58:53;5.43;;;4.93;;
3597;SDS011;1813;52.016;8.714;2022-08-16T11:01:27;5.30;;;4.90;;
3597;SDS011;1813;52.016;8.714;2022-08-16T11:03:59;6.90;;;5.10;;
3597;SDS011;1813;52.016;8.714;2022-08-16T11:06:31;5.00;;;4.50;;
3597;SDS011;1813;52.016;8.714;2022-08-16T11:09:03;5.93;;;5.33;;
3597;SDS011;1813;52.016;8.714;2022-08-16T11:11:36;4.47;;;3.97;;
3597;SDS011;1813;52.016;8.714;2022-08-16T11:14:08;4.10;;;3.73;;
3597;SDS011;1813;52.016;8.714;2022-08-16T11:16:41;5.03;;;4.30;;
3597;SDS011;1813;52.016;8.714;2022-08-16T11:19:13;4.20;;;3.83;;
3597;SDS011;1813;52.016;8.714;2022-08-16T11:21:45;3.90;;;3.60;;
3597;SDS011;1813;52.016;8.714;2022-08-16T11:24:17;4.67;;;4.27;;
3597;SDS011;1813;52.016;8.714;2022-08-16T11:26:50;5.13;;;3.93;;
3597;SDS011;1813;52.016;8.714;2022-08-16T11:29:22;5.07;;;4.30;;
3597;SDS011;1813;52.016;8.714;2022-08-16T11:31:54;4.60;;;3.80;;
3597;SDS011;1813;52.016;8.714;2022-08-16T11:34:26;8.60;;;3.80;;
3597;SDS011;1813;52.016;8.714;2022-08-16T11:36:58;4.13;;;3.80;;
3597;SDS011;1813;52.016;8.714;2022-08-16T11:39:30;5.57;;;4.03;;
3597;SDS011;1813;52.016;8.714;2022-08-16T11:42:04;4.77;;;4.37;;
3597;SDS011;1813;52.016;8.714;2022-08-16T11:44:36;4.30;;;3.90;;
3597;SDS011;1813;52.016;8.714;2022-08-16T11:47:08;5.00;;;4.50;;
3597;SDS011;1813;52.016;8.714;2022-08-16T11:49:42;4.70;;;4.30;;
3597;SDS011;1813;52.016;8.714;2022-08-16T11:52:14;4.90;;;4.50;;
3597;SDS011;1813;52.016;8.714;2022-08-16T11:54:47;8.40;;;4.20;;
3597;SDS011;1813;52.016;8.714;2022-08-16T11:57:20;6.57;;;3.80;;
3597;SDS011;1813;52.016;8.714;2022-08-16T11:59:52;5.37;;;3.70;;
3597;SDS011;1813;52.016;8.714;2022-08-16T12:02:24;4.13;;;3.73;;
3597;SDS011;1813;52.016;8.714;2022-08-16T12:04:56;4.60;;;3.90;;
3597;SDS011;1813;52.016;8.714;2022-08-16T12:07:28;6.90;;;3.80;;
3597;SDS011;1813;52.016;8.714;2022-08-16T12:10:00;5.20;;;4.23;;
3597;SDS011;1813;52.016;8.714;2022-08-16T12:12:33;4.80;;;4.30;;
3597;SDS011;1813;52.016;8.714;2022-08-16T12:15:05;5.07;;;4.00;;
3597;SDS011;1813;52.016;8.714;2022-08-16T12:17:38;4.60;;;4.20;;
3597;SDS011;1813;52.016;8.714;2022-08-16T12:20:13;5.03;;;4.60;;
3597;SDS011;1813;52.016;8.714;2022-08-16T12:22:47;6.20;;;4.10;;
3597;SDS011;1813;52.016;8.714;2022-08-16T12:25:20;6.77;;;4.40;;
3597;SDS011;1813;52.016;8.714;2022-08-16T12:27:55;4.30;;;3.90;;
3597;SDS011;1813;52.016;8.714;2022-08-16T12:30:29;5.37;;;4.17;;
3597;SDS011;1813;52.016;8.714;2022-08-16T12:33:03;6.77;;;4.00;;
3597;SDS011;1813;52.016;8.714;2022-08-16T12:35:37;4.33;;;3.93;;
3597;SDS011;1813;52.016;8.714;2022-08-16T12:38:09;4.97;;;3.90;;
3597;SDS011;1813;52.016;8.714;2022-08-16T12:40:50;4.27;;;3.87;;
3597;SDS011;1813;52.016;8.714;2022-08-16T12:43:23;4.47;;;3.97;;
3597;SDS011;1813;52.016;8.714;2022-08-16T12:45:55;4.80;;;4.00;;
3597;SDS011;1813;52.016;8.714;2022-08-16T12:48:30;4.07;;;3.70;;
3597;SDS011;1813;52.016;8.714;2022-08-16T12:51:22;5.70;;;4.23;;
3597;SDS011;1813;52.016;8.714;2022-08-16T12:53:57;4.40;;;4.10;;
3597;SDS011;1813;52.016;8.714;2022-08-16T12:56:33;6.60;;;4.57;;
3597;SDS011;1813;52.016;8.714;2022-08-16T12:59:09;8.30;;;4.70;;
3597;SDS011;1813;52.016;8.714;2022-08-16T13:01:45;6.40;;;4.30;;
3597;SDS011;1813;52.016;8.714;2022-08-16T13:04:17;4.77;;;4.17;;
3597;SDS011;1813;52.016;8.714;2022-08-16T13:06:49;11.23;;;4.50;;
3597;SDS011;1813;52.016;8.714;2022-08-16T13:09:21;5.50;;;4.27;;
3597;SDS011;1813;52.016;8.714;2022-08-16T13:11:57;4.27;;;3.87;;
3597;SDS011;1813;52.016;8.714;2022-08-16T13:14:32;5.63;;;3.77;;
3597;SDS011;1813;52.016;8.714;2022-08-16T13:17:08;5.67;;;4.03;;
3597;SDS011;1813;52.016;8.714;2022-08-16T13:19:43;6.60;;;4.10;;
3597;SDS011;1813;52.016;8.714;2022-08-16T13:22:15;4.70;;;4.30;;
3597;SDS011;1813;52.016;8.714;2022-08-16T13:24:47;7.50;;;4.63;;
3597;SDS011;1813;52.016;8.714;2022-08-16T13:27:21;4.70;;;4.30;;
3597;SDS011;1813;52.016;8.714;2022-08-16T13:29:53;10.40;;;4.40;;
3597;SDS011;1813;52.016;8.714;2022-08-16T13:32:25;4.37;;;3.97;;
3597;SDS011;1813;52.016;8.714;2022-08-16T13:34:57;4.87;;;4.37;;
3597;SDS011;1813;52.016;8.714;2022-08-16T13:37:30;4.70;;;4.00;;
3597;SDS011;1813;52.016;8.714;2022-08-16T13:40:04;8.50;;;4.47;;
3597;SDS011;1813;52.016;8.714;2022-08-16T13:42:38;14.70;;;4.33;;
3597;SDS011;1813;52.016;8.714;2022-08-16T13:45:12;9.80;;;4.43;;
3597;SDS011;1813;52.016;8.714;2022-08-16T13:47:46;4.23;;;3.83;;
3597;SDS011;1813;52.016;8.714;2022-08-16T13:50:18;5.60;;;4.30;;
3597;SDS011;1813;52.016;8.714;2022-08-16T13:52:51;4.70;;;4.23;;
3597;SDS011;1813;52.016;8.714;2022-08-16T13:55:23;12.93;;;4.40;;
3597;SDS011;1813;52.016;8.714;2022-08-16T13:57:57;8.20;;;3.93;;
3597;SDS011;1813;52.016;8.714;2022-08-16T14:00:29;4.80;;;4.40;;
3597;SDS011;1813;52.016;8.714;2022-08-16T14:03:01;4.30;;;3.93;;
3597;SDS011;1813;52.016;8.714;2022-08-16T14:05:34;6.47;;;4.20;;
3597;SDS011;1813;52.016;8.714;2022-08-16T14:08:06;5.50;;;4.33;;
3597;SDS011;1813;52.016;8.714;2022-08-16T14:10:38;6.03;;;4.20;;
3597;SDS011;1813;52.016;8.714;2022-08-16T14:13:11;10.30;;;4.37;;
3597;SDS011;1813;52.016;8.714;2022-08-16T14:15:44;5.00;;;3.70;;
3597;SDS011;1813;52.016;8.714;2022-08-16T14:18:16;6.50;;;4.30;;
3597;SDS011;1813;52.016;8.714;2022-08-16T14:20:48;4.77;;;4.47;;
3597;SDS011;1813;52.016;8.714;2022-08-16T14:23:20;5.17;;;4.37;;
3597;SDS011;1813;52.016;8.714;2022-08-16T14:25:52;4.73;;;3.93;;
3597;SDS011;1813;52.016;8.714;2022-08-16T14:28:26;5.83;;;4.40;;
3597;SDS011;1813;52.016;8.714;2022-08-16T14:30:58;4.43;;;3.93;;
3597;SDS011;1813;52.016;8.714;2022-08-16T14:33:30;3.97;;;3.67;;
3597;SDS011;1813;52.016;8.714;2022-08-16T14:36:02;5.10;;;4.60;;
3597;SDS011;1813;52.016;8.714;2022-08-16T14:38:36;10.07;;;4.67;;
3597;SDS011;1813;52.016;8.714;2022-08-16T14:41:08;5.00;;;4.43;;
3597;SDS011;1813;52.016;8.714;2022-08-16T14:43:41;5.10;;;4.37;;
3597;SDS011;1813;52.016;8.714;2022-08-16T14:46:13;7.93;;;4.53;;
3597;SDS011;1813;52.016;8.714;2022-08-16T14:48:45;7.27;;;4.27;;
3597;SDS011;1813;52.016;8.714;2022-08-16T14:51:17;4.97;;;3.87;;
3597;SDS011;1813;52.016;8.714;2022-08-16T14:53:49;10.03;;;4.90;;
3597;SDS011;1813;52.016;8.714;2022-08-16T14:56:21;4.27;;;3.93;;
3597;SDS011;1813;52.016;8.714;2022-08-16T14:58:55;5.63;;;4.10;;
3597;SDS011;1813;52.016;8.714;2022-08-16T15:01:27;9.60;;;4.23;;
3597;SDS011;1813;52.016;8.714;2022-08-16T15:03:59;4.57;;;4.17;;
3597;SDS011;1813;52.016;8.714;2022-08-16T15:06:31;11.00;;;4.47;;
3597;SDS011;1813;52.016;8.714;2022-08-16T15:09:03;7.83;;;4.27;;
3597;SDS011;1813;52.016;8.714;2022-08-16T15:11:38;4.77;;;3.90;;
3597;SDS011;1813;52.016;8.714;2022-08-16T15:14:12;5.13;;;4.00;;
3597;SDS011;1813;52.016;8.714;2022-08-16T15:16:44;7.33;;;4.30;;
3597;SDS011;1813;52.016;8.714;2022-08-16T15:19:16;10.73;;;4.23;;
3597;SDS011;1813;52.016;8.714;2022-08-16T15:21:48;4.40;;;4.00;;
3597;SDS011;1813;52.016;8.714;2022-08-16T15:24:20;7.10;;;4.23;;
3597;SDS011;1813;52.016;8.714;2022-08-16T15:26:52;8.33;;;4.13;;
3597;SDS011;1813;52.016;8.714;2022-08-16T15:29:25;7.10;;;4.17;;
3597;SDS011;1813;52.016;8.714;2022-08-16T15:31:58;6.23;;;3.90;;
3597;SDS011;1813;52.016;8.714;2022-08-16T15:34:30;10.90;;;4.37;;
3597;SDS011;1813;52.016;8.714;2022-08-16T15:37:02;7.70;;;4.43;;
3597;SDS011;1813;52.016;8.714;2022-08-16T15:39:34;6.00;;;3.90;;
3597;SDS011;1813;52.016;8.714;2022-08-16T15:42:07;11.50;;;4.50;;